sensor_id;sensor_type;location;lat;lon;timestamp;pressure;altitude;pressure_sealevel;temperature;humidity
57799;BME280;43626;53.866;30.298;2022-08-03T00:00:08;1023.8;;;19.5;63.8
57799;BME280;43626;53.866;30.298;2022-08-03T00:05:08;1023.9;;;19.6;63.7
57799;BME280;43626;53.866;30.298;2022-08-03T00:10:08;1023.9;;;19.6;63.7
57799;BME280;43626;53.866;30.298;2022-08-03T00:15:08;1024;;;19.7;63.5
57799;BME280;43626;53.866;30.298;2022-08-03T00:20:08;1024;;;19.7;63.4
57799;BME280;43626;53.866;30.298;2022-08-03T00:25:08;1024;;;19.7;63.5
57799;BME280;43626;53.866;30.298;2022-08-03T00:30:08;1023.9;;;19.6;63.8
57799;BME280;43626;53.866;30.298;2022-08-03T00:35:08;1023.8;;;19.5;64.2
57799;BME280;43626;53.866;30.298;2022-08-03T00:40:09;1023.8;;;19.4;64.6
57799;BME280;43626;53.866;30.298;2022-08-03T00:45:08;1023.8;;;19.3;65.1
57799;BME280;43626;53.866;30.298;2022-08-03T00:50:08;1023.8;;;19.3;65.3
57799;BME280;43626;53.866;30.298;2022-08-03T00:55:08;1023.8;;;19.2;65.4
57799;BME280;43626;53.866;30.298;2022-08-03T01:00:09;1023.8;;;19.3;65.3
57799;BME280;43626;53.866;30.298;2022-08-03T01:05:08;1023.9;;;19.3;65.1
57799;BME280;43626;53.866;30.298;2022-08-03T01:10:27;1023.9;;;19.4;65.1
57799;BME280;43626;53.866;30.298;2022-08-03T01:15:33;1023.9;;;19.4;64.9
57799;BME280;43626;53.866;30.298;2022-08-03T01:20:08;1023.9;;;19.5;64.8
57799;BME280;43626;53.866;30.298;2022-08-03T01:25:11;1023.8;;;19.4;65
57799;BME280;43626;53.866;30.298;2022-08-03T01:30:09;1023.8;;;19.3;65.1
57799;BME280;43626;53.866;30.298;2022-08-03T01:35:10;1023.9;;;19.2;65.5
57799;BME280;43626;53.866;30.298;2022-08-03T01:40:08;1024;;;19.3;65.4
57799;BME280;43626;53.866;30.298;2022-08-03T01:45:08;1023.9;;;19.2;65.5
57799;BME280;43626;53.866;30.298;2022-08-03T01:50:08;1023.9;;;19.3;65.3
57799;BME280;43626;53.866;30.298;2022-08-03T01:55:08;1023.9;;;19.4;65
57799;BME280;43626;53.866;30.298;2022-08-03T02:00:08;1023.9;;;19.4;64.8
57799;BME280;43626;53.866;30.298;2022-08-03T02:05:08;1023.9;;;19.4;64.9
57799;BME280;43626;53.866;30.298;2022-08-03T02:10:08;1023.8;;;19.3;64.9
57799;BME280;43626;53.866;30.298;2022-08-03T02:15:08;1023.7;;;19.3;64.9
57799;BME280;43626;53.866;30.298;2022-08-03T02:20:08;1023.7;;;19.2;65.2
57799;BME280;43626;53.866;30.298;2022-08-03T02:25:08;1023.7;;;19.2;65.4
57799;BME280;43626;53.866;30.298;2022-08-03T02:30:08;1023.7;;;19.1;65.6
57799;BME280;43626;53.866;30.298;2022-08-03T02:35:09;1023.6;;;19.2;65.4
57799;BME280;43626;53.866;30.298;2022-08-03T02:40:08;1023.6;;;19.2;65.3
57799;BME280;43626;53.866;30.298;2022-08-03T02:45:08;1023.6;;;19.2;65.2
57799;BME280;43626;53.866;30.298;2022-08-03T02:50:09;1023.7;;;19.3;65
57799;BME280;43626;53.866;30.298;2022-08-03T02:55:08;1023.7;;;19.3;64.8
57799;BME280;43626;53.866;30.298;2022-08-03T03:00:08;1023.8;;;19.4;64.5
57799;BME280;43626;53.866;30.298;2022-08-03T03:05:08;1023.8;;;19.5;64.3
57799;BME280;43626;53.866;30.298;2022-08-03T03:10:08;1023.8;;;19.5;64.2
57799;BME280;43626;53.866;30.298;2022-08-03T03:15:08;1023.8;;;19.5;64
57799;BME280;43626;53.866;30.298;2022-08-03T03:20:08;1023.9;;;19.5;63.9
57799;BME280;43626;53.866;30.298;2022-08-03T03:25:08;1023.9;;;19.5;63.7
57799;BME280;43626;53.866;30.298;2022-08-03T03:30:08;1023.9;;;19.4;63.8
57799;BME280;43626;53.866;30.298;2022-08-03T03:35:08;1024;;;19.4;63.7
57799;BME280;43626;53.866;30.298;2022-08-03T03:40:08;1024.2;;;19.4;63.7
57799;BME280;43626;53.866;30.298;2022-08-03T03:45:08;1024.2;;;19.5;63.4
57799;BME280;43626;53.866;30.298;2022-08-03T03:50:08;1024.3;;;19.5;63.2
57799;BME280;43626;53.866;30.298;2022-08-03T03:55:08;1024.3;;;19.5;63.2
57799;BME280;43626;53.866;30.298;2022-08-03T04:00:08;1024.4;;;19.5;63.2
57799;BME280;43626;53.866;30.298;2022-08-03T04:05:08;1024.4;;;19.6;63.2
57799;BME280;43626;53.866;30.298;2022-08-03T04:10:11;1024.4;;;19.6;63.1
57799;BME280;43626;53.866;30.298;2022-08-03T04:15:08;1024.4;;;19.6;63
57799;BME280;43626;53.866;30.298;2022-08-03T04:20:08;1024.5;;;19.4;63.3
57799;BME280;43626;53.866;30.298;2022-08-03T04:25:08;1024.5;;;19.3;64
57799;BME280;43626;53.866;30.298;2022-08-03T04:30:08;1024.6;;;19.3;64.3
57799;BME280;43626;53.866;30.298;2022-08-03T04:35:08;1024.5;;;19.2;64.3
57799;BME280;43626;53.866;30.298;2022-08-03T04:40:09;1024.5;;;19.2;64.3
57799;BME280;43626;53.866;30.298;2022-08-03T04:45:10;1024.6;;;19.3;64.1
57799;BME280;43626;53.866;30.298;2022-08-03T04:50:08;1024.6;;;19.3;64
57799;BME280;43626;53.866;30.298;2022-08-03T04:55:08;1024.6;;;19.3;64.1
57799;BME280;43626;53.866;30.298;2022-08-03T05:00:08;1024.6;;;19.2;64.1
57799;BME280;43626;53.866;30.298;2022-08-03T05:05:08;1024.6;;;19.2;64.3
57799;BME280;43626;53.866;30.298;2022-08-03T05:10:09;1024.7;;;19.3;64.3
57799;BME280;43626;53.866;30.298;2022-08-03T05:15:08;1024.7;;;19.3;64.5
57799;BME280;43626;53.866;30.298;2022-08-03T05:20:08;1024.8;;;19.4;64.3
57799;BME280;43626;53.866;30.298;2022-08-03T05:25:08;1024.8;;;19.5;64.2
57799;BME280;43626;53.866;30.298;2022-08-03T05:30:08;1024.8;;;19.6;63.8
57799;BME280;43626;53.866;30.298;2022-08-03T05:35:08;1024.8;;;19.6;63.8
57799;BME280;43626;53.866;30.298;2022-08-03T05:40:08;1024.8;;;19.6;63.9
57799;BME280;43626;53.866;30.298;2022-08-03T05:45:08;1024.8;;;19.8;63.7
57799;BME280;43626;53.866;30.298;2022-08-03T05:50:09;1024.8;;;19.9;63.4
57799;BME280;43626;53.866;30.298;2022-08-03T05:55:08;1024.8;;;20.1;63.1
57799;BME280;43626;53.866;30.298;2022-08-03T06:00:09;1024.9;;;20.2;62.7
57799;BME280;43626;53.866;30.298;2022-08-03T06:05:08;1024.9;;;20.5;62.5
57799;BME280;43626;53.866;30.298;2022-08-03T06:10:08;1024.9;;;20.7;61.7
57799;BME280;43626;53.866;30.298;2022-08-03T06:15:08;1024.9;;;20.9;61.3
57799;BME280;43626;53.866;30.298;2022-08-03T06:20:08;1024.9;;;21.1;60.4
57799;BME280;43626;53.866;30.298;2022-08-03T06:25:08;1024.9;;;21.2;59.7
57799;BME280;43626;53.866;30.298;2022-08-03T06:30:08;1024.8;;;21.3;59.4
57799;BME280;43626;53.866;30.298;2022-08-03T06:35:08;1024.8;;;21.3;59.4
57799;BME280;43626;53.866;30.298;2022-08-03T06:40:08;1024.8;;;21.4;58.8
57799;BME280;43626;53.866;30.298;2022-08-03T06:45:08;1024.7;;;21.5;58.7
57799;BME280;43626;53.866;30.298;2022-08-03T06:50:08;1024.7;;;21.5;58.7
57799;BME280;43626;53.866;30.298;2022-08-03T06:55:08;1024.8;;;21.4;58.5
57799;BME280;43626;53.866;30.298;2022-08-03T07:00:08;1024.7;;;21.4;57.8
57799;BME280;43626;53.866;30.298;2022-08-03T07:05:09;1024.7;;;21.5;57.5
57799;BME280;43626;53.866;30.298;2022-08-03T07:10:09;1024.7;;;21.5;58.2
57799;BME280;43626;53.866;30.298;2022-08-03T07:15:08;1024.6;;;21.5;58
57799;BME280;43626;53.866;30.298;2022-08-03T07:20:08;1024.6;;;21.5;58.1
57799;BME280;43626;53.866;30.298;2022-08-03T07:25:08;1024.6;;;21.5;58.4
57799;BME280;43626;53.866;30.298;2022-08-03T07:30:09;1024.7;;;21.6;58.3
57799;BME280;43626;53.866;30.298;2022-08-03T07:35:08;1024.7;;;21.6;58.1
57799;BME280;43626;53.866;30.298;2022-08-03T07:40:08;1024.7;;;21.8;57.3
57799;BME280;43626;53.866;30.298;2022-08-03T07:45:08;1024.8;;;22;57
57799;BME280;43626;53.866;30.298;2022-08-03T07:50:08;1024.8;;;22.4;56.9
57799;BME280;43626;53.866;30.298;2022-08-03T07:55:08;1024.9;;;22.8;55.2
57799;BME280;43626;53.866;30.298;2022-08-03T08:00:16;1024.9;;;23.1;54.1
57799;BME280;43626;53.866;30.298;2022-08-03T08:05:08;1024.8;;;23.3;53.3
57799;BME280;43626;53.866;30.298;2022-08-03T08:10:08;1024.8;;;23.4;53.5
57799;BME280;43626;53.866;30.298;2022-08-03T08:15:08;1024.8;;;23.6;52.1
57799;BME280;43626;53.866;30.298;2022-08-03T08:20:09;1024.8;;;23.9;51.5
57799;BME280;43626;53.866;30.298;2022-08-03T08:25:08;1024.9;;;24.1;51.4
57799;BME280;43626;53.866;30.298;2022-08-03T08:30:08;1024.9;;;24.3;50.3
57799;BME280;43626;53.866;30.298;2022-08-03T08:35:08;1024.9;;;24.3;49.8
57799;BME280;43626;53.866;30.298;2022-08-03T08:40:08;1024.9;;;24.3;50
57799;BME280;43626;53.866;30.298;2022-08-03T08:45:08;1025;;;24.4;50.1
57799;BME280;43626;53.866;30.298;2022-08-03T08:50:08;1025;;;24.5;48.8
57799;BME280;43626;53.866;30.298;2022-08-03T08:55:08;1025;;;24.9;47.6
57799;BME280;43626;53.866;30.298;2022-08-03T09:00:08;1024.9;;;25.1;46.4
57799;BME280;43626;53.866;30.298;2022-08-03T09:05:09;1024.8;;;25.3;46.4
57799;BME280;43626;53.866;30.298;2022-08-03T09:10:08;1024.9;;;25.3;46.9
57799;BME280;43626;53.866;30.298;2022-08-03T09:15:39;1024.9;;;25.4;47.1
57799;BME280;43626;53.866;30.298;2022-08-03T09:20:08;1024.9;;;25.4;47.9
57799;BME280;43626;53.866;30.298;2022-08-03T09:25:08;1025;;;25.2;48
57799;BME280;43626;53.866;30.298;2022-08-03T09:30:12;1025.1;;;25.1;48.7
57799;BME280;43626;53.866;30.298;2022-08-03T09:35:08;1025.1;;;25;48.6
57799;BME280;43626;53.866;30.298;2022-08-03T09:40:08;1025.1;;;24.7;49
57799;BME280;43626;53.866;30.298;2022-08-03T09:45:08;1025.1;;;24.5;49.5
57799;BME280;43626;53.866;30.298;2022-08-03T09:50:08;1025.2;;;24.5;49.4
57799;BME280;43626;53.866;30.298;2022-08-03T09:55:09;1025.2;;;24.7;49.4
57799;BME280;43626;53.866;30.298;2022-08-03T10:00:09;1025.2;;;25;48.4
57799;BME280;43626;53.866;30.298;2022-08-03T10:05:09;1025.2;;;25.5;47.8
57799;BME280;43626;53.866;30.298;2022-08-03T10:10:08;1025.2;;;25.7;47.7
57799;BME280;43626;53.866;30.298;2022-08-03T10:15:09;1025.3;;;25.7;47.3
57799;BME280;43626;53.866;30.298;2022-08-03T10:20:08;1025.3;;;25.6;46.9
57799;BME280;43626;53.866;30.298;2022-08-03T10:25:09;1025.3;;;25.4;47
57799;BME280;43626;53.866;30.298;2022-08-03T10:30:09;1025.2;;;25.5;47
57799;BME280;43626;53.866;30.298;2022-08-03T10:35:10;1025.2;;;25.4;46.8
57799;BME280;43626;53.866;30.298;2022-08-03T10:40:11;1025.3;;;25.3;47.2
57799;BME280;43626;53.866;30.298;2022-08-03T10:45:12;1025.3;;;25.4;47.2
57799;BME280;43626;53.866;30.298;2022-08-03T10:50:08;1025.3;;;25.4;47.3
57799;BME280;43626;53.866;30.298;2022-08-03T10:55:40;1025.3;;;25.4;47.3
57799;BME280;43626;53.866;30.298;2022-08-03T11:00:08;1025.3;;;25.5;47.3
57799;BME280;43626;53.866;30.298;2022-08-03T11:05:24;1025.3;;;25.5;47.3
57799;BME280;43626;53.866;30.298;2022-08-03T11:10:08;1025.3;;;25.5;47.6
57799;BME280;43626;53.866;30.298;2022-08-03T11:15:08;1025.3;;;25.6;47.5
57799;BME280;43626;53.866;30.298;2022-08-03T11:20:08;1025.2;;;25.6;47.5
57799;BME280;43626;53.866;30.298;2022-08-03T11:25:08;1025.1;;;25.6;47.4
57799;BME280;43626;53.866;30.298;2022-08-03T11:30:22;1025.1;;;25.6;48.1
57799;BME280;43626;53.866;30.298;2022-08-03T11:35:16;1025.1;;;25.7;47.6
57799;BME280;43626;53.866;30.298;2022-08-03T11:40:08;1025.2;;;25.6;47.7
57799;BME280;43626;53.866;30.298;2022-08-03T11:45:08;1025.1;;;25.7;47.8
57799;BME280;43626;53.866;30.298;2022-08-03T11:50:08;1025.1;;;25.8;47.5
57799;BME280;43626;53.866;30.298;2022-08-03T11:55:09;1025.1;;;25.9;47
57799;BME280;43626;53.866;30.298;2022-08-03T12:00:20;1025.1;;;25.9;46.8
57799;BME280;43626;53.866;30.298;2022-08-03T12:05:08;1025;;;25.8;47.2
57799;BME280;43626;53.866;30.298;2022-08-03T12:10:10;1025.1;;;25.9;47
57799;BME280;43626;53.866;30.298;2022-08-03T12:15:08;1025.1;;;25.9;46.5
57799;BME280;43626;53.866;30.298;2022-08-03T12:20:13;1025;;;25.9;45.7
57799;BME280;43626;53.866;30.298;2022-08-03T12:25:08;1025;;;26;45.4
57799;BME280;43626;53.866;30.298;2022-08-03T12:30:08;1025;;;26;45.1
57799;BME280;43626;53.866;30.298;2022-08-03T12:35:08;1024.9;;;26;45.2
57799;BME280;43626;53.866;30.298;2022-08-03T12:40:08;1024.9;;;26.1;44.2
57799;BME280;43626;53.866;30.298;2022-08-03T12:45:24;1024.8;;;26.2;44.6
57799;BME280;43626;53.866;30.298;2022-08-03T12:50:22;1024.8;;;26.4;44.2
57799;BME280;43626;53.866;30.298;2022-08-03T12:55:08;1024.8;;;26.6;43.8
57799;BME280;43626;53.866;30.298;2022-08-03T13:00:12;1024.8;;;26.7;43.5
57799;BME280;43626;53.866;30.298;2022-08-03T13:05:10;1024.7;;;26.7;43.3
57799;BME280;43626;53.866;30.298;2022-08-03T13:10:08;1024.7;;;26.7;42.8
57799;BME280;43626;53.866;30.298;2022-08-03T13:15:08;1024.7;;;26.7;42.8
57799;BME280;43626;53.866;30.298;2022-08-03T13:20:08;1024.7;;;26.5;42.9
57799;BME280;43626;53.866;30.298;2022-08-03T13:25:08;1024.7;;;26.2;43.1
57799;BME280;43626;53.866;30.298;2022-08-03T13:30:08;1024.6;;;26.4;43.1
57799;BME280;43626;53.866;30.298;2022-08-03T13:35:08;1024.6;;;26.6;42.2
57799;BME280;43626;53.866;30.298;2022-08-03T13:40:08;1024.6;;;26.5;42.4
57799;BME280;43626;53.866;30.298;2022-08-03T13:45:08;1024.7;;;26.4;42.5
57799;BME280;43626;53.866;30.298;2022-08-03T13:50:08;1024.7;;;26.3;42.9
57799;BME280;43626;53.866;30.298;2022-08-03T13:55:08;1024.8;;;26.2;43
57799;BME280;43626;53.866;30.298;2022-08-03T14:00:08;1024.8;;;26.1;42.9
57799;BME280;43626;53.866;30.298;2022-08-03T14:05:08;1024.8;;;26.3;42.2
57799;BME280;43626;53.866;30.298;2022-08-03T14:10:08;1024.7;;;26.6;41.6
57799;BME280;43626;53.866;30.298;2022-08-03T14:15:08;1024.7;;;27;40.6
57799;BME280;43626;53.866;30.298;2022-08-03T14:20:08;1024.7;;;27.2;40.5
57799;BME280;43626;53.866;30.298;2022-08-03T14:25:08;1024.7;;;27.3;40.1
57799;BME280;43626;53.866;30.298;2022-08-03T14:30:08;1024.8;;;27.2;39.9
57799;BME280;43626;53.866;30.298;2022-08-03T14:35:08;1024.8;;;27.5;39.4
57799;BME280;43626;53.866;30.298;2022-08-03T14:40:08;1024.8;;;27.6;38.9
57799;BME280;43626;53.866;30.298;2022-08-03T14:45:08;1024.8;;;27.6;38.9
57799;BME280;43626;53.866;30.298;2022-08-03T14:50:08;1024.8;;;27.9;38.8
57799;BME280;43626;53.866;30.298;2022-08-03T14:55:08;1024.8;;;28;38.6
57799;BME280;43626;53.866;30.298;2022-08-03T15:00:08;1024.8;;;28.1;38.4
57799;BME280;43626;53.866;30.298;2022-08-03T15:05:08;1024.8;;;28.1;38.4
57799;BME280;43626;53.866;30.298;2022-08-03T15:10:08;1024.8;;;28.1;38.4
57799;BME280;43626;53.866;30.298;2022-08-03T15:15:08;1024.8;;;28.1;38.4
57799;BME280;43626;53.866;30.298;2022-08-03T15:20:08;1024.9;;;26;41.5
57799;BME280;43626;53.866;30.298;2022-08-03T15:25:08;1024.9;;;26;42.7
57799;BME280;43626;53.866;30.298;2022-08-03T15:30:08;1024.8;;;26.2;42.6
57799;BME280;43626;53.866;30.298;2022-08-03T15:35:08;1024.9;;;26.3;42.4
57799;BME280;43626;53.866;30.298;2022-08-03T15:40:08;1024.9;;;26.6;42.2
57799;BME280;43626;53.866;30.298;2022-08-03T15:45:08;1024.9;;;26.9;41.9
57799;BME280;43626;53.866;30.298;2022-08-03T15:50:08;1024.9;;;26.9;41.9
57799;BME280;43626;53.866;30.298;2022-08-03T15:55:08;1024.9;;;27.2;41.9
57799;BME280;43626;53.866;30.298;2022-08-03T16:00:08;1024.9;;;27.4;41.8
57799;BME280;43626;53.866;30.298;2022-08-03T16:05:08;1024.9;;;27.2;42
57799;BME280;43626;53.866;30.298;2022-08-03T16:10:08;1024.9;;;26.9;42.5
57799;BME280;43626;53.866;30.298;2022-08-03T16:15:08;1024.9;;;26.7;43
57799;BME280;43626;53.866;30.298;2022-08-03T16:20:08;1024.9;;;26.4;43.6
57799;BME280;43626;53.866;30.298;2022-08-03T16:25:08;1024.9;;;26.2;43.9
57799;BME280;43626;53.866;30.298;2022-08-03T16:30:08;1024.9;;;26;44.1
57799;BME280;43626;53.866;30.298;2022-08-03T16:35:08;1024.9;;;25.9;44.3
57799;BME280;43626;53.866;30.298;2022-08-03T16:40:09;1025;;;25.8;44.6
57799;BME280;43626;53.866;30.298;2022-08-03T16:45:08;1025;;;25.8;44.8
57799;BME280;43626;53.866;30.298;2022-08-03T16:50:08;1025.1;;;25.8;44.8
57799;BME280;43626;53.866;30.298;2022-08-03T16:55:08;1025.1;;;25.9;44.8
57799;BME280;43626;53.866;30.298;2022-08-03T17:00:08;1025.1;;;26;44.6
57799;BME280;43626;53.866;30.298;2022-08-03T17:05:08;1025.2;;;25.9;44.5
57799;BME280;43626;53.866;30.298;2022-08-03T17:10:08;1025.2;;;25.7;44.9
57799;BME280;43626;53.866;30.298;2022-08-03T17:15:08;1025.2;;;25.6;44.9
57799;BME280;43626;53.866;30.298;2022-08-03T17:20:09;1025.3;;;25.4;44.6
57799;BME280;43626;53.866;30.298;2022-08-03T17:25:08;1025.4;;;25.3;44.6
57799;BME280;43626;53.866;30.298;2022-08-03T17:30:09;1025.4;;;25.1;44.6
57799;BME280;43626;53.866;30.298;2022-08-03T17:35:08;1025.5;;;25;44.8
57799;BME280;43626;53.866;30.298;2022-08-03T17:40:09;1025.4;;;24.8;45.1
57799;BME280;43626;53.866;30.298;2022-08-03T17:45:08;1025.5;;;24.6;45.5
57799;BME280;43626;53.866;30.298;2022-08-03T17:50:08;1025.6;;;24.5;45.9
57799;BME280;43626;53.866;30.298;2022-08-03T17:55:10;1025.7;;;24.4;46.2
57799;BME280;43626;53.866;30.298;2022-08-03T18:00:09;1025.8;;;24.3;46.6
57799;BME280;43626;53.866;30.298;2022-08-03T18:05:08;1025.8;;;24.2;47
57799;BME280;43626;53.866;30.298;2022-08-03T18:10:08;1025.9;;;24.1;47.4
57799;BME280;43626;53.866;30.298;2022-08-03T18:15:08;1026;;;24;47.6
57799;BME280;43626;53.866;30.298;2022-08-03T18:20:08;1026;;;24;47.7
57799;BME280;43626;53.866;30.298;2022-08-03T18:25:08;1026;;;23.9;48
57799;BME280;43626;53.866;30.298;2022-08-03T18:30:08;1026;;;23.8;48.3
57799;BME280;43626;53.866;30.298;2022-08-03T18:35:08;1026;;;23.7;48.5
57799;BME280;43626;53.866;30.298;2022-08-03T18:40:08;1025.9;;;23.7;48.9
57799;BME280;43626;53.866;30.298;2022-08-03T18:45:08;1025.9;;;23.6;49.6
57799;BME280;43626;53.866;30.298;2022-08-03T18:50:18;1025.9;;;23.5;49.9
57799;BME280;43626;53.866;30.298;2022-08-03T19:00:09;1026;;;23.4;50.5
57799;BME280;43626;53.866;30.298;2022-08-03T19:05:08;1026;;;23.2;50.9
57799;BME280;43626;53.866;30.298;2022-08-03T19:10:08;1026;;;23.2;51
57799;BME280;43626;53.866;30.298;2022-08-03T19:15:09;1026;;;23.1;51.2
57799;BME280;43626;53.866;30.298;2022-08-03T19:20:08;1026.1;;;23.1;51.4
57799;BME280;43626;53.866;30.298;2022-08-03T19:25:08;1026.1;;;23.1;51.5
57799;BME280;43626;53.866;30.298;2022-08-03T19:30:08;1026.1;;;23.1;51.7
57799;BME280;43626;53.866;30.298;2022-08-03T19:35:09;1026;;;23.1;52
57799;BME280;43626;53.866;30.298;2022-08-03T19:40:08;1026;;;23;52.4
57799;BME280;43626;53.866;30.298;2022-08-03T19:45:08;1026;;;23;52.5
57799;BME280;43626;53.866;30.298;2022-08-03T19:50:08;1026;;;23;52.7
57799;BME280;43626;53.866;30.298;2022-08-03T19:55:09;1026;;;23;52.9
57799;BME280;43626;53.866;30.298;2022-08-03T20:00:08;1026.1;;;23;53
57799;BME280;43626;53.866;30.298;2022-08-03T20:05:08;1026;;;23;53
57799;BME280;43626;53.866;30.298;2022-08-03T20:10:08;1026;;;23;52.9
57799;BME280;43626;53.866;30.298;2022-08-03T20:15:08;1026;;;22.9;53
57799;BME280;43626;53.866;30.298;2022-08-03T20:20:08;1025.9;;;22.9;53.2
57799;BME280;43626;53.866;30.298;2022-08-03T20:25:09;1025.9;;;22.8;53.4
57799;BME280;43626;53.866;30.298;2022-08-03T20:30:08;1025.9;;;22.8;53.7
57799;BME280;43626;53.866;30.298;2022-08-03T20:35:08;1025.9;;;22.7;54.3
57799;BME280;43626;53.866;30.298;2022-08-03T20:40:08;1025.9;;;22.6;54.5
57799;BME280;43626;53.866;30.298;2022-08-03T20:45:08;1025.9;;;22.6;54.5
57799;BME280;43626;53.866;30.298;2022-08-03T20:50:08;1025.9;;;22.6;54.5
57799;BME280;43626;53.866;30.298;2022-08-03T20:55:09;1026;;;22.6;54.5
57799;BME280;43626;53.866;30.298;2022-08-03T21:00:08;1026;;;22.6;54.5
57799;BME280;43626;53.866;30.298;2022-08-03T21:05:08;1026;;;22.5;54.7
57799;BME280;43626;53.866;30.298;2022-08-03T21:10:08;1026;;;22.5;54.8
57799;BME280;43626;53.866;30.298;2022-08-03T21:15:08;1025.9;;;22.5;54.8
57799;BME280;43626;53.866;30.298;2022-08-03T21:20:09;1026;;;22.3;55.1
57799;BME280;43626;53.866;30.298;2022-08-03T21:25:08;1026;;;22.2;55.7
57799;BME280;43626;53.866;30.298;2022-08-03T21:30:09;1026;;;22.1;56.2
57799;BME280;43626;53.866;30.298;2022-08-03T21:35:08;1026;;;22.1;56.4
57799;BME280;43626;53.866;30.298;2022-08-03T21:40:08;1026;;;22;56.6
57799;BME280;43626;53.866;30.298;2022-08-03T21:45:09;1026;;;22;56.7
57799;BME280;43626;53.866;30.298;2022-08-03T21:50:09;1026.1;;;22;56.6
57799;BME280;43626;53.866;30.298;2022-08-03T21:55:08;1026.1;;;22;56.7
57799;BME280;43626;53.866;30.298;2022-08-03T22:00:11;1026.1;;;21.9;57
57799;BME280;43626;53.866;30.298;2022-08-03T22:05:08;1026.1;;;21.9;56.9
57799;BME280;43626;53.866;30.298;2022-08-03T22:10:08;1026.2;;;21.9;57
57799;BME280;43626;53.866;30.298;2022-08-03T22:15:09;1026.3;;;21.9;57.3
57799;BME280;43626;53.866;30.298;2022-08-03T22:20:09;1026.2;;;21.8;57.8
57799;BME280;43626;53.866;30.298;2022-08-03T22:25:10;1026.2;;;21.8;58.1
57799;BME280;43626;53.866;30.298;2022-08-03T22:30:10;1026.2;;;21.7;58.3
57799;BME280;43626;53.866;30.298;2022-08-03T22:35:09;1026.2;;;21.7;58.4
57799;BME280;43626;53.866;30.298;2022-08-03T22:40:09;1026.2;;;21.7;58.3
57799;BME280;43626;53.866;30.298;2022-08-03T22:45:08;1026.2;;;21.7;58.1
57799;BME280;43626;53.866;30.298;2022-08-03T22:50:09;1026.2;;;21.7;58.2
57799;BME280;43626;53.866;30.298;2022-08-03T22:55:10;1026.2;;;21.7;58.2
57799;BME280;43626;53.866;30.298;2022-08-03T23:00:09;1026.2;;;21.7;58.4
57799;BME280;43626;53.866;30.298;2022-08-03T23:05:11;1026.1;;;21.6;58.6
57799;BME280;43626;53.866;30.298;2022-08-03T23:10:11;1026.2;;;21.6;59
57799;BME280;43626;53.866;30.298;2022-08-03T23:15:09;1026.2;;;21.6;59.3
57799;BME280;43626;53.866;30.298;2022-08-03T23:20:08;1026.2;;;21.6;59.3
57799;BME280;43626;53.866;30.298;2022-08-03T23:25:08;1026.2;;;21.5;59.4
57799;BME280;43626;53.866;30.298;2022-08-03T23:30:09;1026.2;;;21.5;59.6
57799;BME280;43626;53.866;30.298;2022-08-03T23:35:08;1026.3;;;21.5;59.2
57799;BME280;43626;53.866;30.298;2022-08-03T23:40:08;1026.3;;;21.5;59.5
57799;BME280;43626;53.866;30.298;2022-08-03T23:45:08;1026.3;;;21.4;59.9
57799;BME280;43626;53.866;30.298;2022-08-03T23:50:08;1026.3;;;21.4;60.2
57799;BME280;43626;53.866;30.298;2022-08-03T23:55:12;1026.3;;;21.3;60.3
